createdAt,value
2018-04-11T00:00:20.812Z,937.82
2018-04-11T00:01:20.806Z,937.77
2018-04-11T00:02:20.800Z,937.75
2018-04-11T00:03:20.792Z,937.76
2018-04-11T00:04:20.787Z,937.73
2018-04-11T00:05:20.780Z,937.75
2018-04-11T00:06:20.773Z,937.76
2018-04-11T00:07:20.780Z,937.74
2018-04-11T00:08:20.760Z,937.76
2018-04-11T00:09:20.754Z,937.79
2018-04-11T00:10:20.750Z,937.79
2018-04-11T00:11:20.743Z,937.78
2018-04-11T00:12:20.737Z,937.81
2018-04-11T00:13:20.730Z,937.80
2018-04-11T00:14:20.724Z,937.83
2018-04-11T00:15:20.717Z,937.86
2018-04-11T00:16:20.712Z,937.84
2018-04-11T00:17:20.705Z,937.86
2018-04-11T00:18:20.699Z,937.87
2018-04-11T00:19:20.693Z,937.87
2018-04-11T00:20:20.688Z,937.86
2018-04-11T00:21:20.681Z,937.91
2018-04-11T00:22:20.675Z,937.90
2018-04-11T00:23:20.670Z,937.92
2018-04-11T00:24:20.663Z,937.91
2018-04-11T00:25:20.657Z,937.85
2018-04-11T00:26:20.651Z,937.85
2018-04-11T00:27:20.643Z,937.79
2018-04-11T00:28:20.638Z,937.81
2018-04-11T00:29:20.630Z,937.78
2018-04-11T00:30:20.622Z,937.82
2018-04-11T00:31:20.615Z,937.83
2018-04-11T00:32:20.607Z,937.88
2018-04-11T00:33:20.604Z,937.85
2018-04-11T00:34:20.593Z,937.84
2018-04-11T00:35:20.587Z,937.82
2018-04-11T00:36:20.581Z,937.77
2018-04-11T00:37:20.573Z,937.80
2018-04-11T00:38:20.566Z,937.74
2018-04-11T00:39:20.560Z,937.78
2018-04-11T00:40:20.554Z,937.74
2018-04-11T00:41:20.547Z,937.74
2018-04-11T00:42:20.540Z,937.73
2018-04-11T00:43:20.534Z,937.78
2018-04-11T00:44:20.528Z,937.76
2018-04-11T00:45:20.522Z,937.78
2018-04-11T00:46:20.541Z,937.76
2018-04-11T00:47:20.509Z,937.76
2018-04-11T00:48:20.503Z,937.76
2018-04-11T00:49:20.496Z,937.76
2018-04-11T00:50:20.489Z,937.74
2018-04-11T00:51:20.485Z,937.78
2018-04-11T00:52:20.477Z,937.79
2018-04-11T00:53:20.471Z,937.73
2018-04-11T00:54:20.465Z,937.77
2018-04-11T00:55:20.459Z,937.75
2018-04-11T00:56:20.451Z,937.78
2018-04-11T00:57:20.444Z,937.82
2018-04-11T00:58:20.442Z,937.79
2018-04-11T00:59:20.431Z,937.83
2018-04-11T01:00:20.425Z,937.82
2018-04-11T01:01:20.418Z,937.81
2018-04-11T01:02:20.412Z,937.78
2018-04-11T01:03:20.405Z,937.74
2018-04-11T01:04:20.399Z,937.74
2018-04-11T01:05:20.399Z,937.73
2018-04-11T01:06:20.388Z,937.73
2018-04-11T01:07:20.381Z,937.68
2018-04-11T01:08:20.375Z,937.70
2018-04-11T01:09:20.368Z,937.68
2018-04-11T01:10:20.363Z,937.70
2018-04-11T01:11:20.356Z,937.73
2018-04-11T01:12:20.350Z,937.75
2018-04-11T01:13:20.346Z,937.70
2018-04-11T01:14:20.335Z,937.72
2018-04-11T01:15:20.330Z,937.72
2018-04-11T01:16:20.326Z,937.77
2018-04-11T01:17:20.318Z,937.77
2018-04-11T01:18:20.311Z,937.78
2018-04-11T01:19:20.306Z,937.79
2018-04-11T01:20:20.298Z,937.78
2018-04-11T01:21:20.294Z,937.76
2018-04-11T01:22:20.344Z,937.79
2018-04-11T01:23:20.281Z,937.76
2018-04-11T01:24:20.274Z,937.75
2018-04-11T01:25:20.269Z,937.76
2018-04-11T01:26:20.261Z,937.73
2018-04-11T01:27:20.255Z,937.75
2018-04-11T01:28:20.248Z,937.73
2018-04-11T01:29:20.245Z,937.75
2018-04-11T01:30:20.236Z,937.72
2018-04-11T01:31:20.230Z,937.76
2018-04-11T01:32:20.227Z,937.74
2018-04-11T01:33:20.217Z,937.75
2018-04-11T01:34:20.209Z,937.77
2018-04-11T01:35:20.203Z,937.81
2018-04-11T01:36:20.198Z,937.81
2018-04-11T01:37:20.191Z,937.84
2018-04-11T01:38:20.185Z,937.82
2018-04-11T01:39:20.179Z,937.86
2018-04-11T01:40:20.172Z,937.86
2018-04-11T01:41:20.167Z,937.83
2018-04-11T01:42:20.158Z,937.81
2018-04-11T01:43:20.154Z,937.85
2018-04-11T01:44:20.146Z,937.85
2018-04-11T01:45:20.140Z,937.79
2018-04-11T01:46:20.133Z,937.84
2018-04-11T01:47:20.128Z,937.78
2018-04-11T01:48:20.121Z,937.79
2018-04-11T01:49:20.117Z,937.83
2018-04-11T01:50:20.108Z,937.79
2018-04-11T01:51:20.103Z,937.76
2018-04-11T01:52:20.101Z,937.75
2018-04-11T01:53:20.091Z,937.76
2018-04-11T01:54:20.085Z,937.71
2018-04-11T01:55:20.077Z,937.71
2018-04-11T01:56:20.071Z,937.70
2018-04-11T01:57:20.067Z,937.69
2018-04-11T01:58:20.060Z,937.72
2018-04-11T01:59:20.053Z,937.75
2018-04-11T02:00:20.047Z,937.78
2018-04-11T02:01:20.041Z,937.76
2018-04-11T02:02:20.034Z,937.79
2018-04-11T02:03:20.035Z,937.80
2018-04-11T02:04:20.022Z,937.83
2018-04-11T02:05:20.024Z,937.87
2018-04-11T02:06:20.012Z,937.88
2018-04-11T02:07:20.003Z,937.86
2018-04-11T02:08:19.996Z,937.85
2018-04-11T02:09:19.990Z,937.85
2018-04-11T02:10:19.983Z,937.83
2018-04-11T02:11:19.977Z,937.80
2018-04-11T02:12:19.970Z,937.76
2018-04-11T02:13:19.963Z,937.76
2018-04-11T02:14:19.982Z,937.77
2018-04-11T02:15:19.951Z,937.74
2018-04-11T02:16:19.943Z,937.74
2018-04-11T02:17:19.938Z,937.73
2018-04-11T02:18:19.931Z,937.74
2018-04-11T02:19:19.924Z,937.74
2018-04-11T02:20:19.916Z,937.77
2018-04-11T02:21:19.910Z,937.75
2018-04-11T02:22:19.903Z,937.73
2018-04-11T02:23:19.897Z,937.76
2018-04-11T02:24:19.891Z,937.71
2018-04-11T02:25:19.885Z,937.74
2018-04-11T02:26:19.877Z,937.74
2018-04-11T02:27:19.870Z,937.74
2018-04-11T02:28:19.864Z,937.73
2018-04-11T02:29:19.858Z,937.77
2018-04-11T02:30:19.851Z,937.77
2018-04-11T02:31:19.844Z,937.76
2018-04-11T02:32:19.838Z,937.75
2018-04-11T02:33:19.832Z,937.73
2018-04-11T02:34:19.823Z,937.72
2018-04-11T02:35:19.818Z,937.72
2018-04-11T02:36:19.812Z,937.72
2018-04-11T02:37:19.804Z,937.72
2018-04-11T02:38:19.796Z,937.70
2018-04-11T02:39:19.790Z,937.69
2018-04-11T02:40:19.784Z,937.69
2018-04-11T02:41:19.777Z,937.69
2018-04-11T02:42:19.769Z,937.71
2018-04-11T02:43:19.763Z,937.70
2018-04-11T02:44:19.758Z,937.75
2018-04-11T02:45:19.750Z,937.70
2018-04-11T02:46:19.742Z,937.71
2018-04-11T02:47:19.735Z,937.67
2018-04-11T02:48:19.729Z,937.69
2018-04-11T02:49:19.722Z,937.67
2018-04-11T02:50:19.715Z,937.69
2018-04-11T02:51:19.708Z,937.68
2018-04-11T02:52:19.701Z,937.65
2018-04-11T02:53:19.694Z,937.64
2018-04-11T02:54:19.686Z,937.62
2018-04-11T02:55:19.680Z,937.62
2018-04-11T02:56:19.673Z,937.66
2018-04-11T02:57:19.667Z,937.63
2018-04-11T02:58:19.659Z,937.63
2018-04-11T02:59:19.653Z,937.63
2018-04-11T03:00:19.701Z,937.58
2018-04-11T03:01:19.641Z,937.59
2018-04-11T03:02:19.632Z,937.54
2018-04-11T03:03:19.626Z,937.56
2018-04-11T03:04:19.619Z,937.55
2018-04-11T03:05:19.613Z,937.56
2018-04-11T03:06:19.608Z,937.55
2018-04-11T03:07:19.600Z,937.57
2018-04-11T03:08:19.594Z,937.57
2018-04-11T03:09:19.610Z,937.58
2018-04-11T03:10:19.579Z,937.60
2018-04-11T03:11:19.572Z,937.59
2018-04-11T03:12:19.566Z,937.56
2018-04-11T03:13:19.559Z,937.57
2018-04-11T03:14:19.552Z,937.53
2018-04-11T03:15:19.546Z,937.56
2018-04-11T03:16:19.539Z,937.52
2018-04-11T03:17:19.533Z,937.56
2018-04-11T03:18:19.525Z,937.56
2018-04-11T03:19:19.519Z,937.56
2018-04-11T03:20:19.512Z,937.59
2018-04-11T03:21:19.504Z,937.61
2018-04-11T03:22:19.497Z,937.59
2018-04-11T03:23:19.491Z,937.62
2018-04-11T03:24:19.483Z,937.61
2018-04-11T03:25:19.476Z,937.58
2018-04-11T03:26:19.468Z,937.62
2018-04-11T03:27:19.463Z,937.60
2018-04-11T03:28:19.456Z,937.60
2018-04-11T03:29:19.448Z,937.63
2018-04-11T03:30:19.442Z,937.54
2018-04-11T03:31:19.435Z,937.56
2018-04-11T03:32:19.429Z,937.51
2018-04-11T03:33:19.421Z,937.54
2018-04-11T03:34:19.414Z,937.51
2018-04-11T03:35:19.409Z,937.50
2018-04-11T03:36:19.400Z,937.49
2018-04-11T03:37:19.393Z,937.49
2018-04-11T03:38:19.387Z,937.49
2018-04-11T03:39:19.378Z,937.48
2018-04-11T03:40:19.376Z,937.47
2018-04-11T03:41:19.365Z,937.45
2018-04-11T03:42:19.361Z,937.40
2018-04-11T03:43:19.351Z,937.42
2018-04-11T03:44:19.345Z,937.43
2018-04-11T03:45:19.338Z,937.41
2018-04-11T03:46:19.330Z,937.40
2018-04-11T03:47:19.325Z,937.32
2018-04-11T03:48:19.318Z,937.29
2018-04-11T03:49:19.311Z,937.27
2018-04-11T03:50:19.302Z,937.27
2018-04-11T03:51:19.295Z,937.25
2018-04-11T03:52:19.288Z,937.24
2018-04-11T03:53:19.282Z,937.30
2018-04-11T03:54:19.274Z,937.29
2018-04-11T03:55:19.268Z,937.27
2018-04-11T03:56:19.263Z,937.28
2018-04-11T03:57:19.254Z,937.30
2018-04-11T03:58:19.247Z,937.29
2018-04-11T03:59:19.238Z,937.30
2018-04-11T04:00:19.231Z,937.29
2018-04-11T04:01:19.225Z,937.29
2018-04-11T04:02:19.217Z,937.25
2018-04-11T04:03:19.209Z,937.22
2018-04-11T04:04:19.203Z,937.21
2018-04-11T04:05:19.196Z,937.20
2018-04-11T04:06:19.188Z,937.18
2018-04-11T04:07:19.181Z,937.19
2018-04-11T04:08:19.174Z,937.20
2018-04-11T04:09:19.168Z,937.22
2018-04-11T04:10:19.164Z,937.22
2018-04-11T04:11:19.154Z,937.22
2018-04-11T04:12:19.147Z,937.23
2018-04-11T04:13:19.138Z,937.25
2018-04-11T04:14:19.132Z,937.28
2018-04-11T04:15:19.124Z,937.24
2018-04-11T04:16:19.118Z,937.23
2018-04-11T04:17:19.110Z,937.23
2018-04-11T04:18:19.103Z,937.20
2018-04-11T04:19:19.096Z,937.18
2018-04-11T04:20:19.089Z,937.17
2018-04-11T04:21:19.082Z,937.15
2018-04-11T04:22:19.075Z,937.13
2018-04-11T04:23:19.070Z,937.16
2018-04-11T04:24:19.060Z,937.17
2018-04-11T04:25:19.055Z,937.12
2018-04-11T04:26:19.048Z,937.11
2018-04-11T04:27:19.039Z,937.09
2018-04-11T04:28:19.033Z,937.01
2018-04-11T04:29:19.249Z,937.02
2018-04-11T04:30:19.017Z,937.05
2018-04-11T04:31:19.031Z,937.03
2018-04-11T04:32:19.227Z,937.05
2018-04-11T04:33:18.996Z,937.03
2018-04-11T04:34:18.988Z,937.04
2018-04-11T04:35:18.983Z,937.02
2018-04-11T04:36:18.974Z,937.03
2018-04-11T04:37:18.970Z,937.02
2018-04-11T04:38:18.960Z,937.02
2018-04-11T04:39:19.056Z,936.97
2018-04-11T04:40:18.946Z,936.96
2018-04-11T04:41:18.938Z,936.93
2018-04-11T04:42:18.930Z,936.93
2018-04-11T04:43:18.928Z,936.91
2018-04-11T04:44:18.918Z,936.94
2018-04-11T04:45:18.910Z,936.88
2018-04-11T04:46:18.902Z,936.90
2018-04-11T04:47:18.894Z,936.87
2018-04-11T04:48:18.887Z,936.88
2018-04-11T04:49:18.881Z,936.87
2018-04-11T04:50:18.904Z,936.86
2018-04-11T04:51:18.867Z,936.85
2018-04-11T04:52:18.859Z,936.83
2018-04-11T04:53:18.851Z,936.84
2018-04-11T04:54:18.843Z,936.85
2018-04-11T04:55:18.837Z,936.83
2018-04-11T04:56:18.830Z,936.85
2018-04-11T04:57:18.823Z,936.79
2018-04-11T04:58:18.815Z,936.77
2018-04-11T04:59:18.809Z,936.76
2018-04-11T05:00:18.801Z,936.78
2018-04-11T05:01:18.796Z,936.80
2018-04-11T05:02:18.787Z,936.80
2018-04-11T05:03:18.779Z,936.80
2018-04-11T05:04:18.771Z,936.81
2018-04-11T05:05:18.765Z,936.84
2018-04-11T05:06:18.759Z,936.85
2018-04-11T05:07:18.750Z,936.82
2018-04-11T05:08:18.745Z,936.79
2018-04-11T05:09:18.837Z,936.76
2018-04-11T05:10:18.728Z,936.77
2018-04-11T05:11:18.721Z,936.72
2018-04-11T05:12:18.715Z,936.74
2018-04-11T05:13:18.708Z,936.71
2018-04-11T05:14:18.700Z,936.68
2018-04-11T05:15:18.792Z,936.66
2018-04-11T05:16:18.686Z,936.69
2018-04-11T05:17:18.682Z,936.69
2018-04-11T05:18:18.671Z,936.69
2018-04-11T05:19:18.667Z,936.70
2018-04-11T05:20:18.657Z,936.65
2018-04-11T05:21:18.651Z,936.64
2018-04-11T05:22:18.643Z,936.63
2018-04-11T05:23:18.635Z,936.60
2018-04-11T05:24:18.629Z,936.60
2018-04-11T05:25:18.621Z,936.56
2018-04-11T05:26:18.613Z,936.54
2018-04-11T05:27:18.638Z,936.53
2018-04-11T05:28:18.602Z,936.54
2018-04-11T05:29:18.592Z,936.57
2018-04-11T05:30:18.584Z,936.52
2018-04-11T05:31:18.577Z,936.54
2018-04-11T05:32:18.570Z,936.54
2018-04-11T05:33:18.563Z,936.54
2018-04-11T05:34:18.554Z,936.54
2018-04-11T05:35:18.547Z,936.55
2018-04-11T05:36:18.540Z,936.56
2018-04-11T05:37:18.535Z,936.54
2018-04-11T05:38:18.526Z,936.49
2018-04-11T05:39:18.518Z,936.54
2018-04-11T05:40:18.512Z,936.50
2018-04-11T05:41:18.506Z,936.50
2018-04-11T05:42:18.495Z,936.50
2018-04-11T05:43:18.488Z,936.52
2018-04-11T05:44:18.482Z,936.51
2018-04-11T05:45:18.473Z,936.51
2018-04-11T05:46:18.466Z,936.50
2018-04-11T05:47:18.460Z,936.49
2018-04-11T05:48:18.452Z,936.47
2018-04-11T05:49:18.445Z,936.45
2018-04-11T05:50:18.437Z,936.47
2018-04-11T05:51:18.430Z,936.49
2018-04-11T05:52:18.422Z,936.48
2018-04-11T05:53:18.415Z,936.48
2018-04-11T05:54:18.409Z,936.45
2018-04-11T05:55:18.400Z,936.46
2018-04-11T05:56:18.393Z,936.47
2018-04-11T05:57:18.387Z,936.43
2018-04-11T05:58:18.377Z,936.43
2018-04-11T05:59:18.372Z,936.42
2018-04-11T06:00:18.363Z,936.42
2018-04-11T06:01:18.362Z,936.43
2018-04-11T06:02:18.349Z,936.42
2018-04-11T06:03:18.341Z,936.41
2018-04-11T06:04:18.334Z,936.43
2018-04-11T06:05:18.327Z,936.39
2018-04-11T06:06:18.319Z,936.37
2018-04-11T06:07:18.313Z,936.36
2018-04-11T06:08:18.305Z,936.40
2018-04-11T06:09:18.398Z,936.39
2018-04-11T06:10:18.289Z,936.34
2018-04-11T06:11:18.283Z,936.34
2018-04-11T06:12:18.275Z,936.36
2018-04-11T06:13:18.267Z,936.35
2018-04-11T06:14:18.258Z,936.36
2018-04-11T06:15:18.253Z,936.40
2018-04-11T06:16:18.244Z,936.35
2018-04-11T06:17:18.237Z,936.34
2018-04-11T06:18:18.229Z,936.37
2018-04-11T06:19:18.221Z,936.36
2018-04-11T06:20:18.217Z,936.33
2018-04-11T06:21:18.207Z,936.30
2018-04-11T06:22:18.198Z,936.34
2018-04-11T06:23:18.192Z,936.31
2018-04-11T06:24:18.184Z,936.36
2018-04-11T06:25:18.176Z,936.35
2018-04-11T06:26:18.168Z,936.35
2018-04-11T06:27:18.160Z,936.30
2018-04-11T06:28:18.156Z,936.31
2018-04-11T06:29:18.146Z,936.28
2018-04-11T06:30:18.138Z,936.33
2018-04-11T06:31:18.130Z,936.34
2018-04-11T06:32:18.123Z,936.30
2018-04-11T06:33:18.117Z,936.33
2018-04-11T06:34:18.108Z,936.31
2018-04-11T06:35:18.100Z,936.32
2018-04-11T06:36:18.095Z,936.35
2018-04-11T06:37:18.086Z,936.35
2018-04-11T06:38:18.078Z,936.35
2018-04-11T06:39:18.179Z,936.33
2018-04-11T06:40:18.064Z,936.41
2018-04-11T06:41:18.057Z,936.35
2018-04-11T06:42:18.048Z,936.35
2018-04-11T06:43:18.041Z,936.34
2018-04-11T06:44:18.034Z,936.29
2018-04-11T06:45:18.127Z,936.34
2018-04-11T06:46:18.018Z,936.31
2018-04-11T06:47:18.050Z,936.26
2018-04-11T06:48:18.004Z,936.28
2018-04-11T06:49:17.997Z,936.31
2018-04-11T06:50:17.990Z,936.26
2018-04-11T06:51:18.083Z,936.30
2018-04-11T06:52:17.974Z,936.29
2018-04-11T06:53:17.968Z,936.29
2018-04-11T06:54:17.963Z,936.30
2018-04-11T06:55:17.959Z,936.24
2018-04-11T06:56:17.945Z,936.21
2018-04-11T06:57:17.938Z,936.21
2018-04-11T06:58:17.967Z,936.21
2018-04-11T06:59:17.922Z,936.22
2018-04-11T07:00:17.917Z,936.24
2018-04-11T07:01:17.908Z,936.21
2018-04-11T07:02:17.904Z,936.20
2018-04-11T07:03:17.894Z,936.17
2018-04-11T07:04:17.885Z,936.15
2018-04-11T07:05:17.879Z,936.19
2018-04-11T07:06:17.874Z,936.18
2018-04-11T07:07:17.863Z,936.17
2018-04-11T07:08:17.857Z,936.16
2018-04-11T07:09:17.849Z,936.17
2018-04-11T07:10:17.843Z,936.15
2018-04-11T07:11:17.833Z,936.13
2018-04-11T07:12:17.826Z,936.15
2018-04-11T07:13:17.819Z,936.13
2018-04-11T07:14:17.811Z,936.13
2018-04-11T07:15:17.804Z,936.19
2018-04-11T07:16:17.797Z,936.17
2018-04-11T07:17:17.789Z,936.20
2018-04-11T07:18:17.781Z,936.16
2018-04-11T07:19:17.775Z,936.22
2018-04-11T07:20:17.784Z,936.21
2018-04-11T07:21:17.782Z,936.18
2018-04-11T07:22:17.787Z,936.16
2018-04-11T07:23:17.769Z,936.17
2018-04-11T07:24:17.758Z,936.17
2018-04-11T07:25:17.752Z,936.14
2018-04-11T07:26:17.728Z,936.17
2018-04-11T07:27:17.723Z,936.16
2018-04-11T07:28:17.714Z,936.16
2018-04-11T07:29:17.701Z,936.12
2018-04-11T07:30:17.700Z,936.09
2018-04-11T07:31:17.689Z,936.09
2018-04-11T07:32:17.687Z,936.08
2018-04-11T07:33:17.672Z,936.12
2018-04-11T07:34:17.664Z,936.13
2018-04-11T07:35:17.656Z,936.15
2018-04-11T07:36:17.648Z,936.17
2018-04-11T07:37:17.643Z,936.15
2018-04-11T07:38:17.642Z,936.14
2018-04-11T07:39:17.640Z,936.12
2018-04-11T07:40:17.622Z,936.11
2018-04-11T07:41:17.614Z,936.15
2018-04-11T07:42:17.605Z,936.11
2018-04-11T07:43:17.598Z,936.11
2018-04-11T07:44:17.592Z,936.10
2018-04-11T07:45:17.586Z,936.09
2018-04-11T07:46:17.575Z,936.11
2018-04-11T07:47:17.569Z,936.14
2018-04-11T07:48:17.562Z,936.15
2018-04-11T07:49:17.555Z,936.15
2018-04-11T07:50:17.547Z,936.19
2018-04-11T07:51:17.540Z,936.17
2018-04-11T07:52:17.533Z,936.20
2018-04-11T07:53:17.526Z,936.19
2018-04-11T07:54:17.518Z,936.20
2018-04-11T07:55:17.516Z,936.22
2018-04-11T07:56:17.506Z,936.22
2018-04-11T07:57:17.498Z,936.21
2018-04-11T07:58:17.490Z,936.24
2018-04-11T07:59:17.483Z,936.22
2018-04-11T08:00:17.478Z,936.21
2018-04-11T08:01:17.469Z,936.21
2018-04-11T08:02:17.462Z,936.20
2018-04-11T08:03:17.622Z,936.18
2018-04-11T08:04:17.453Z,936.19
2018-04-11T08:05:17.443Z,936.21
2018-04-11T08:06:17.432Z,936.20
2018-04-11T08:07:17.427Z,936.20
2018-04-11T08:08:17.422Z,936.20
2018-04-11T08:09:17.413Z,936.22
2018-04-11T08:10:17.405Z,936.21
2018-04-11T08:11:17.399Z,936.27
2018-04-11T08:12:17.390Z,936.27
2018-04-11T08:13:17.384Z,936.29
2018-04-11T08:14:17.375Z,936.26
2018-04-11T08:15:17.469Z,936.28
2018-04-11T08:16:17.402Z,936.26
2018-04-11T08:17:17.355Z,936.28
2018-04-11T08:18:17.347Z,936.24
2018-04-11T08:19:17.342Z,936.28
2018-04-11T08:20:17.334Z,936.30
2018-04-11T08:21:17.326Z,936.32
2018-04-11T08:22:17.320Z,936.36
2018-04-11T08:23:17.319Z,936.30
2018-04-11T08:24:17.305Z,936.30
2018-04-11T08:25:17.298Z,936.34
2018-04-11T08:26:17.291Z,936.28
2018-04-11T08:27:17.284Z,936.32
2018-04-11T08:28:17.278Z,936.31
2018-04-11T08:29:17.270Z,936.32
2018-04-11T08:30:17.268Z,936.30
2018-04-11T08:31:17.255Z,936.29
2018-04-11T08:32:17.248Z,936.34
2018-04-11T08:33:17.241Z,936.32
2018-04-11T08:34:17.233Z,936.34
2018-04-11T08:35:17.228Z,936.37
2018-04-11T08:36:17.219Z,936.34
2018-04-11T08:37:17.214Z,936.33
2018-04-11T08:38:17.205Z,936.37
2018-04-11T08:39:17.199Z,936.36
2018-04-11T08:40:17.191Z,936.39
2018-04-11T08:41:17.184Z,936.37
2018-04-11T08:42:17.178Z,936.39
2018-04-11T08:43:17.170Z,936.42
2018-04-11T08:44:17.164Z,936.43
2018-04-11T08:45:17.256Z,936.39
2018-04-11T08:46:17.148Z,936.37
2018-04-11T08:47:17.145Z,936.38
2018-04-11T08:48:17.135Z,936.38
2018-04-11T08:49:17.129Z,936.36
2018-04-11T08:50:17.123Z,936.37
2018-04-11T08:51:17.113Z,936.34
2018-04-11T08:52:17.108Z,936.36
2018-04-11T08:53:17.103Z,936.32
2018-04-11T08:54:17.093Z,936.32
2018-04-11T08:55:17.085Z,936.29
2018-04-11T08:56:17.079Z,936.30
2018-04-11T08:57:17.073Z,936.32
2018-04-11T08:58:17.068Z,936.30
2018-04-11T08:59:17.059Z,936.33
2018-04-11T09:00:17.051Z,936.36
2018-04-11T09:01:17.044Z,936.37
2018-04-11T09:02:17.037Z,936.40
2018-04-11T09:03:17.030Z,936.38
2018-04-11T09:04:17.022Z,936.41
2018-04-11T09:05:17.016Z,936.38
2018-04-11T09:06:17.008Z,936.42
2018-04-11T09:07:17.002Z,936.39
2018-04-11T09:08:16.994Z,936.37
2018-04-11T09:09:16.989Z,936.38
2018-04-11T09:10:16.981Z,936.36
2018-04-11T09:11:16.973Z,936.39
2018-04-11T09:12:16.965Z,936.43
2018-04-11T09:13:16.958Z,936.38
2018-04-11T09:14:16.951Z,936.41
2018-04-11T09:15:16.944Z,936.42
2018-04-11T09:16:16.943Z,936.40
2018-04-11T09:17:16.930Z,936.43
2018-04-11T09:18:16.921Z,936.47
2018-04-11T09:19:16.916Z,936.43
2018-04-11T09:20:16.908Z,936.45
2018-04-11T09:21:16.902Z,936.45
2018-04-11T09:22:16.894Z,936.47
2018-04-11T09:23:16.885Z,936.51
2018-04-11T09:24:16.880Z,936.52
2018-04-11T09:25:16.871Z,936.53
2018-04-11T09:26:16.863Z,936.52
2018-04-11T09:27:16.857Z,936.54
2018-04-11T09:28:16.850Z,936.54
2018-04-11T09:29:16.843Z,936.58
2018-04-11T09:30:16.837Z,936.59
2018-04-11T09:31:16.828Z,936.61
2018-04-11T09:32:16.822Z,936.60
2018-04-11T09:33:16.815Z,936.61
2018-04-11T09:34:16.807Z,936.61
2018-04-11T09:35:16.800Z,936.58
2018-04-11T09:36:16.794Z,936.61
2018-04-11T09:37:16.787Z,936.65
2018-04-11T09:38:16.778Z,936.63
2018-04-11T09:39:16.871Z,936.65
2018-04-11T09:40:16.764Z,936.70
2018-04-11T09:41:16.758Z,936.68
2018-04-11T09:42:16.751Z,936.72
2018-04-11T09:43:16.743Z,936.74
2018-04-11T09:44:16.737Z,936.75
2018-04-11T09:45:16.729Z,936.76
2018-04-11T09:46:16.721Z,936.77
2018-04-11T09:47:16.715Z,936.77
2018-04-11T09:48:16.711Z,936.81
2018-04-11T09:49:16.701Z,936.84
2018-04-11T09:50:16.693Z,936.87
2018-04-11T09:51:16.686Z,936.89
2018-04-11T09:52:16.685Z,936.90
2018-04-11T09:53:16.672Z,936.93
2018-04-11T09:54:16.666Z,936.94
2018-04-11T09:55:16.659Z,936.94
2018-04-11T09:56:16.652Z,936.96
2018-04-11T09:57:16.649Z,937.00
2018-04-11T09:58:16.637Z,936.99
2018-04-11T09:59:16.632Z,937.02
2018-04-11T10:00:16.629Z,937.03
2018-04-11T10:01:16.619Z,936.99
2018-04-11T10:02:16.609Z,937.02
2018-04-11T10:03:16.605Z,937.05
2018-04-11T10:04:16.596Z,937.12
2018-04-11T10:05:16.590Z,937.10
2018-04-11T10:06:16.584Z,937.13
2018-04-11T10:07:16.576Z,937.17
2018-04-11T10:08:16.569Z,937.16
2018-04-11T10:09:16.566Z,937.15
2018-04-11T10:10:16.555Z,937.15
2018-04-11T10:11:16.550Z,937.14
2018-04-11T10:12:16.543Z,937.19
2018-04-11T10:13:16.535Z,937.17
2018-04-11T10:14:16.527Z,937.16
2018-04-11T10:15:16.522Z,937.20
2018-04-11T10:16:16.514Z,937.24
2018-04-11T10:17:16.507Z,937.21
2018-04-11T10:18:16.500Z,937.19
2018-04-11T10:19:16.494Z,937.21
2018-04-11T10:20:16.487Z,937.28
2018-04-11T10:21:16.480Z,937.29
2018-04-11T10:22:16.472Z,937.34
2018-04-11T10:23:16.465Z,937.36
2018-04-11T10:24:16.459Z,937.36
2018-04-11T10:25:16.459Z,937.33
2018-04-11T10:26:16.444Z,937.36
2018-04-11T10:27:16.437Z,937.34
2018-04-11T10:28:16.432Z,937.32
2018-04-11T10:29:16.424Z,937.31
2018-04-11T10:30:16.418Z,937.33
2018-04-11T10:31:16.412Z,937.32
2018-04-11T10:32:16.405Z,937.32
2018-04-11T10:33:16.396Z,937.36
2018-04-11T10:34:16.391Z,937.36
2018-04-11T10:35:16.382Z,937.36
2018-04-11T10:36:16.375Z,937.40
2018-04-11T10:37:16.378Z,937.35
2018-04-11T10:38:16.360Z,937.37
2018-04-11T10:39:16.354Z,937.33
2018-04-11T10:40:16.348Z,937.34
2018-04-11T10:41:16.341Z,937.30
2018-04-11T10:42:16.334Z,937.33
2018-04-11T10:43:16.326Z,937.36
2018-04-11T10:44:16.319Z,937.36
2018-04-11T10:45:16.314Z,937.40
2018-04-11T10:46:16.333Z,937.39
2018-04-11T10:47:16.299Z,937.45
2018-04-11T10:48:16.292Z,937.45
2018-04-11T10:49:16.287Z,937.44
2018-04-11T10:50:16.278Z,937.47
2018-04-11T10:51:16.271Z,937.50
2018-04-11T10:52:16.279Z,937.48
2018-04-11T10:53:16.262Z,937.49
2018-04-11T10:54:16.250Z,937.50
2018-04-11T10:55:16.243Z,937.51
2018-04-11T10:56:16.239Z,937.54
2018-04-11T10:57:16.230Z,937.53
2018-04-11T10:58:16.223Z,937.58
2018-04-11T10:59:16.224Z,937.54
2018-04-11T11:00:16.211Z,937.52
2018-04-11T11:01:16.206Z,937.54
2018-04-11T11:02:16.195Z,937.57
2018-04-11T11:03:16.199Z,937.54
2018-04-11T11:04:16.228Z,937.54
2018-04-11T11:05:16.200Z,937.55
2018-04-11T11:06:16.173Z,937.60
2018-04-11T11:07:16.196Z,937.56
2018-04-11T11:08:16.184Z,937.61
2018-04-11T11:09:16.157Z,937.52
2018-04-11T11:10:16.141Z,937.59
2018-04-11T11:11:16.136Z,937.54
2018-04-11T11:12:16.130Z,937.58
2018-04-11T11:13:16.124Z,937.57
2018-04-11T11:14:16.115Z,937.59
2018-04-11T11:15:16.107Z,937.62
2018-04-11T11:16:16.101Z,937.62
2018-04-11T11:17:16.095Z,937.60
2018-04-11T11:18:16.090Z,937.64
2018-04-11T11:19:16.081Z,937.59
2018-04-11T11:20:16.075Z,937.62
2018-04-11T11:21:16.067Z,937.61
2018-04-11T11:22:16.063Z,937.66
2018-04-11T11:23:16.054Z,937.69
2018-04-11T11:24:16.047Z,937.65
2018-04-11T11:25:16.040Z,937.67
2018-04-11T11:26:16.034Z,937.67
2018-04-11T11:27:16.028Z,937.67
2018-04-11T11:28:16.070Z,937.64
2018-04-11T11:29:16.015Z,937.64
2018-04-11T11:30:16.008Z,937.64
2018-04-11T11:31:16.000Z,937.63
2018-04-11T11:32:15.994Z,937.67
2018-04-11T11:33:15.990Z,937.68
2018-04-11T11:34:15.981Z,937.68
2018-04-11T11:35:15.973Z,937.73
2018-04-11T11:36:15.966Z,937.72
2018-04-11T11:37:15.960Z,937.72
2018-04-11T11:38:15.954Z,937.73
2018-04-11T11:39:15.946Z,937.73
2018-04-11T11:40:15.950Z,937.75
2018-04-11T11:41:15.933Z,937.76
2018-04-11T11:42:15.940Z,937.77
2018-04-11T11:43:15.921Z,937.80
2018-04-11T11:44:15.919Z,937.81
2018-04-11T11:45:15.907Z,937.85
2018-04-11T11:46:15.899Z,937.83
2018-04-11T11:47:15.897Z,937.86
2018-04-11T11:48:15.886Z,937.90
2018-04-11T11:49:15.879Z,937.85
2018-04-11T11:50:15.875Z,937.84
2018-04-11T11:51:15.866Z,937.86
2018-04-11T11:52:15.861Z,937.86
2018-04-11T11:53:15.853Z,937.86
2018-04-11T11:54:15.847Z,937.87
2018-04-11T11:55:15.840Z,937.92
2018-04-11T11:56:15.836Z,937.94
2018-04-11T11:57:15.838Z,937.97
2018-04-11T11:58:15.820Z,938.02
2018-04-11T11:59:15.815Z,938.07
2018-04-11T12:00:15.808Z,938.07
2018-04-11T12:01:15.802Z,938.09
2018-04-11T12:02:15.818Z,938.15
2018-04-11T12:03:15.791Z,938.19
2018-04-11T12:04:15.784Z,938.15
2018-04-11T12:05:15.777Z,938.18
2018-04-11T12:06:15.773Z,938.16
2018-04-11T12:07:15.766Z,938.15
2018-04-11T12:08:15.760Z,938.15
2018-04-11T12:09:15.755Z,938.18
2018-04-11T12:10:15.748Z,938.16
2018-04-11T12:11:15.743Z,938.17
2018-04-11T12:12:15.737Z,938.16
2018-04-11T12:13:15.733Z,938.18
2018-04-11T12:14:15.727Z,938.18
2018-04-11T12:15:15.720Z,938.14
2018-04-11T12:16:15.715Z,938.16
2018-04-11T12:17:15.713Z,938.14
2018-04-11T12:18:15.706Z,938.10
2018-04-11T12:19:15.702Z,938.07
2018-04-11T12:20:15.695Z,938.05
2018-04-11T12:21:15.704Z,938.06
2018-04-11T12:22:15.685Z,938.04
2018-04-11T12:23:15.679Z,938.06
2018-04-11T12:24:15.674Z,938.05
2018-04-11T12:25:15.668Z,938.07
2018-04-11T12:26:15.664Z,938.04
2018-04-11T12:27:15.657Z,938.07
2018-04-11T12:28:15.661Z,938.06